sensor_id;sensor_type;location;lat;lon;timestamp;P1;durP1;ratioP1;P2;durP2;ratioP2
76777;SDS011;65721;50.118;8.714;2022-12-11T00:02:18;17.30;;;9.10;;
76777;SDS011;65721;50.118;8.714;2022-12-11T00:04:44;16.70;;;8.80;;
76777;SDS011;65721;50.118;8.714;2022-12-11T00:07:10;17.70;;;8.90;;
76777;SDS011;65721;50.118;8.714;2022-12-11T00:09:35;16.50;;;8.70;;
76777;SDS011;65721;50.118;8.714;2022-12-11T00:12:01;19.60;;;11.30;;
76777;SDS011;65721;50.118;8.714;2022-12-11T00:14:27;15.20;;;9.10;;
76777;SDS011;65721;50.118;8.714;2022-12-11T00:16:53;18.70;;;9.60;;
76777;SDS011;65721;50.118;8.714;2022-12-11T00:19:19;18.10;;;9.90;;
76777;SDS011;65721;50.118;8.714;2022-12-11T00:21:44;17.40;;;9.50;;
76777;SDS011;65721;50.118;8.714;2022-12-11T00:24:10;17.10;;;9.40;;
76777;SDS011;65721;50.118;8.714;2022-12-11T00:26:35;17.00;;;10.00;;
76777;SDS011;65721;50.118;8.714;2022-12-11T00:29:01;18.00;;;10.10;;
76777;SDS011;65721;50.118;8.714;2022-12-11T00:31:26;18.10;;;9.70;;
76777;SDS011;65721;50.118;8.714;2022-12-11T00:33:52;17.90;;;9.20;;
76777;SDS011;65721;50.118;8.714;2022-12-11T00:36:21;15.70;;;9.20;;
76777;SDS011;65721;50.118;8.714;2022-12-11T00:38:48;18.80;;;8.90;;
76777;SDS011;65721;50.118;8.714;2022-12-11T00:41:15;14.90;;;8.50;;
76777;SDS011;65721;50.118;8.714;2022-12-11T00:43:41;25.20;;;12.10;;
76777;SDS011;65721;50.118;8.714;2022-12-11T00:46:07;26.30;;;13.20;;
76777;SDS011;65721;50.118;8.714;2022-12-11T00:48:33;24.60;;;13.40;;
76777;SDS011;65721;50.118;8.714;2022-12-11T00:50:59;16.10;;;9.40;;
76777;SDS011;65721;50.118;8.714;2022-12-11T00:53:25;16.60;;;10.20;;
76777;SDS011;65721;50.118;8.714;2022-12-11T00:55:50;16.80;;;9.20;;
76777;SDS011;65721;50.118;8.714;2022-12-11T00:58:16;15.80;;;9.90;;
76777;SDS011;65721;50.118;8.714;2022-12-11T01:00:42;15.60;;;9.00;;
76777;SDS011;65721;50.118;8.714;2022-12-11T01:03:08;18.10;;;9.70;;
76777;SDS011;65721;50.118;8.714;2022-12-11T01:05:37;17.30;;;9.50;;
76777;SDS011;65721;50.118;8.714;2022-12-11T01:08:03;15.70;;;9.20;;
76777;SDS011;65721;50.118;8.714;2022-12-11T01:10:28;15.70;;;10.70;;
76777;SDS011;65721;50.118;8.714;2022-12-11T01:13:05;16.40;;;8.90;;
76777;SDS011;65721;50.118;8.714;2022-12-11T01:15:32;16.00;;;9.50;;
76777;SDS011;65721;50.118;8.714;2022-12-11T01:18:02;16.60;;;9.80;;
76777;SDS011;65721;50.118;8.714;2022-12-11T01:20:27;15.90;;;8.50;;
76777;SDS011;65721;50.118;8.714;2022-12-11T01:22:54;16.50;;;9.30;;
76777;SDS011;65721;50.118;8.714;2022-12-11T01:25:21;17.00;;;8.70;;
76777;SDS011;65721;50.118;8.714;2022-12-11T01:27:48;16.50;;;9.60;;
76777;SDS011;65721;50.118;8.714;2022-12-11T01:30:16;17.20;;;10.20;;
76777;SDS011;65721;50.118;8.714;2022-12-11T01:32:42;15.90;;;10.20;;
76777;SDS011;65721;50.118;8.714;2022-12-11T01:35:07;17.30;;;10.20;;
76777;SDS011;65721;50.118;8.714;2022-12-11T01:37:35;19.00;;;9.90;;
76777;SDS011;65721;50.118;8.714;2022-12-11T01:40:00;17.80;;;9.80;;
76777;SDS011;65721;50.118;8.714;2022-12-11T01:42:26;24.70;;;13.50;;
76777;SDS011;65721;50.118;8.714;2022-12-11T01:47:48;22.00;;;12.30;;
76777;SDS011;65721;50.118;8.714;2022-12-11T01:50:19;15.90;;;9.10;;
76777;SDS011;65721;50.118;8.714;2022-12-11T01:52:47;17.60;;;9.70;;
76777;SDS011;65721;50.118;8.714;2022-12-11T01:55:14;20.10;;;10.50;;
76777;SDS011;65721;50.118;8.714;2022-12-11T01:57:42;17.80;;;10.30;;
76777;SDS011;65721;50.118;8.714;2022-12-11T02:00:11;17.80;;;10.60;;
76777;SDS011;65721;50.118;8.714;2022-12-11T02:02:37;19.10;;;11.40;;
76777;SDS011;65721;50.118;8.714;2022-12-11T02:05:04;15.70;;;10.30;;
76777;SDS011;65721;50.118;8.714;2022-12-11T02:07:32;18.20;;;11.00;;
76777;SDS011;65721;50.118;8.714;2022-12-11T02:10:03;17.60;;;9.60;;
76777;SDS011;65721;50.118;8.714;2022-12-11T02:12:30;17.40;;;9.10;;
76777;SDS011;65721;50.118;8.714;2022-12-11T02:15:14;19.10;;;9.80;;
76777;SDS011;65721;50.118;8.714;2022-12-11T02:25:36;17.30;;;9.80;;
76777;SDS011;65721;50.118;8.714;2022-12-11T02:28:20;16.10;;;9.70;;
76777;SDS011;65721;50.118;8.714;2022-12-11T02:30:54;18.70;;;10.70;;
76777;SDS011;65721;50.118;8.714;2022-12-11T02:33:29;16.50;;;9.80;;
76777;SDS011;65721;50.118;8.714;2022-12-11T02:36:02;17.60;;;9.50;;
76777;SDS011;65721;50.118;8.714;2022-12-11T02:38:32;22.50;;;12.90;;
76777;SDS011;65721;50.118;8.714;2022-12-11T02:41:02;28.10;;;13.30;;
76777;SDS011;65721;50.118;8.714;2022-12-11T02:43:29;25.10;;;12.90;;
76777;SDS011;65721;50.118;8.714;2022-12-11T02:45:57;15.30;;;9.70;;
76777;SDS011;65721;50.118;8.714;2022-12-11T02:48:24;17.00;;;10.30;;
76777;SDS011;65721;50.118;8.714;2022-12-11T02:50:51;18.70;;;11.90;;
76777;SDS011;65721;50.118;8.714;2022-12-11T02:53:22;18.20;;;10.20;;
76777;SDS011;65721;50.118;8.714;2022-12-11T02:55:54;18.10;;;10.40;;
76777;SDS011;65721;50.118;8.714;2022-12-11T02:58:26;16.70;;;9.00;;
76777;SDS011;65721;50.118;8.714;2022-12-11T03:00:56;19.20;;;11.10;;
76777;SDS011;65721;50.118;8.714;2022-12-11T03:03:21;16.10;;;9.50;;
76777;SDS011;65721;50.118;8.714;2022-12-11T03:05:47;18.70;;;10.10;;
76777;SDS011;65721;50.118;8.714;2022-12-11T03:08:12;18.20;;;9.70;;
76777;SDS011;65721;50.118;8.714;2022-12-11T03:10:41;17.60;;;10.00;;
76777;SDS011;65721;50.118;8.714;2022-12-11T03:13:08;18.10;;;9.60;;
76777;SDS011;65721;50.118;8.714;2022-12-11T03:15:39;17.30;;;10.30;;
76777;SDS011;65721;50.118;8.714;2022-12-11T03:18:28;30.90;;;14.10;;
76777;SDS011;65721;50.118;8.714;2022-12-11T03:21:06;27.20;;;14.70;;
76777;SDS011;65721;50.118;8.714;2022-12-11T03:26:10;14.70;;;9.40;;
76777;SDS011;65721;50.118;8.714;2022-12-11T03:31:39;18.50;;;10.60;;
76777;SDS011;65721;50.118;8.714;2022-12-11T03:34:12;17.70;;;9.90;;
76777;SDS011;65721;50.118;8.714;2022-12-11T03:39:09;17.70;;;11.00;;
76777;SDS011;65721;50.118;8.714;2022-12-11T03:41:39;19.20;;;10.20;;
76777;SDS011;65721;50.118;8.714;2022-12-11T03:44:08;16.00;;;9.50;;
76777;SDS011;65721;50.118;8.714;2022-12-11T03:46:35;17.90;;;10.40;;
76777;SDS011;65721;50.118;8.714;2022-12-11T03:49:04;18.30;;;10.20;;
76777;SDS011;65721;50.118;8.714;2022-12-11T03:51:39;19.70;;;11.10;;
76777;SDS011;65721;50.118;8.714;2022-12-11T03:54:06;19.00;;;10.50;;
76777;SDS011;65721;50.118;8.714;2022-12-11T03:56:32;19.80;;;10.60;;
76777;SDS011;65721;50.118;8.714;2022-12-11T03:59:00;19.80;;;11.30;;
76777;SDS011;65721;50.118;8.714;2022-12-11T04:01:26;16.90;;;10.30;;
76777;SDS011;65721;50.118;8.714;2022-12-11T04:03:52;25.90;;;13.80;;
76777;SDS011;65721;50.118;8.714;2022-12-11T04:06:17;34.70;;;15.60;;
76777;SDS011;65721;50.118;8.714;2022-12-11T04:08:42;23.50;;;12.90;;
76777;SDS011;65721;50.118;8.714;2022-12-11T04:11:08;17.60;;;10.00;;
76777;SDS011;65721;50.118;8.714;2022-12-11T04:13:53;19.90;;;10.30;;
76777;SDS011;65721;50.118;8.714;2022-12-11T04:16:37;18.00;;;9.30;;
76777;SDS011;65721;50.118;8.714;2022-12-11T04:19:04;16.80;;;10.50;;
76777;SDS011;65721;50.118;8.714;2022-12-11T04:21:49;18.80;;;11.60;;
76777;SDS011;65721;50.118;8.714;2022-12-11T04:24:33;21.60;;;11.60;;
76777;SDS011;65721;50.118;8.714;2022-12-11T04:26:58;21.40;;;9.80;;
76777;SDS011;65721;50.118;8.714;2022-12-11T04:29:24;18.70;;;9.50;;
76777;SDS011;65721;50.118;8.714;2022-12-11T04:31:49;17.90;;;9.90;;
76777;SDS011;65721;50.118;8.714;2022-12-11T04:34:15;18.70;;;10.00;;
76777;SDS011;65721;50.118;8.714;2022-12-11T04:36:41;16.80;;;9.50;;
76777;SDS011;65721;50.118;8.714;2022-12-11T04:39:07;19.10;;;10.10;;
76777;SDS011;65721;50.118;8.714;2022-12-11T04:41:32;17.80;;;9.80;;
76777;SDS011;65721;50.118;8.714;2022-12-11T04:43:58;18.00;;;9.50;;
76777;SDS011;65721;50.118;8.714;2022-12-11T04:46:23;28.90;;;13.90;;
76777;SDS011;65721;50.118;8.714;2022-12-11T04:48:49;31.80;;;15.10;;
76777;SDS011;65721;50.118;8.714;2022-12-11T04:51:16;26.90;;;12.70;;
76777;SDS011;65721;50.118;8.714;2022-12-11T04:53:43;17.70;;;10.90;;
76777;SDS011;65721;50.118;8.714;2022-12-11T04:56:11;18.00;;;10.50;;
76777;SDS011;65721;50.118;8.714;2022-12-11T04:58:39;17.80;;;10.60;;
76777;SDS011;65721;50.118;8.714;2022-12-11T05:01:07;18.80;;;10.60;;
76777;SDS011;65721;50.118;8.714;2022-12-11T05:03:33;18.70;;;10.70;;
76777;SDS011;65721;50.118;8.714;2022-12-11T05:05:59;20.10;;;10.10;;
76777;SDS011;65721;50.118;8.714;2022-12-11T05:08:25;20.20;;;11.60;;
76777;SDS011;65721;50.118;8.714;2022-12-11T05:10:54;18.10;;;9.80;;
76777;SDS011;65721;50.118;8.714;2022-12-11T05:13:23;21.60;;;11.00;;
76777;SDS011;65721;50.118;8.714;2022-12-11T05:15:50;21.30;;;9.90;;
76777;SDS011;65721;50.118;8.714;2022-12-11T05:18:16;18.90;;;10.70;;
76777;SDS011;65721;50.118;8.714;2022-12-11T05:20:41;21.70;;;11.40;;
76777;SDS011;65721;50.118;8.714;2022-12-11T05:23:06;19.80;;;10.60;;
76777;SDS011;65721;50.118;8.714;2022-12-11T05:25:32;22.50;;;11.00;;
76777;SDS011;65721;50.118;8.714;2022-12-11T05:27:57;20.20;;;10.30;;
76777;SDS011;65721;50.118;8.714;2022-12-11T05:30:23;23.00;;;11.20;;
76777;SDS011;65721;50.118;8.714;2022-12-11T05:32:48;31.40;;;14.60;;
76777;SDS011;65721;50.118;8.714;2022-12-11T05:35:13;34.20;;;16.30;;
76777;SDS011;65721;50.118;8.714;2022-12-11T05:37:39;29.90;;;13.80;;
76777;SDS011;65721;50.118;8.714;2022-12-11T05:40:05;19.70;;;12.00;;
76777;SDS011;65721;50.118;8.714;2022-12-11T05:42:32;18.80;;;10.70;;
76777;SDS011;65721;50.118;8.714;2022-12-11T05:44:58;20.90;;;11.00;;
76777;SDS011;65721;50.118;8.714;2022-12-11T05:47:23;19.70;;;10.90;;
76777;SDS011;65721;50.118;8.714;2022-12-11T05:49:49;22.70;;;12.70;;
76777;SDS011;65721;50.118;8.714;2022-12-11T05:52:15;18.60;;;9.80;;
76777;SDS011;65721;50.118;8.714;2022-12-11T05:54:41;20.60;;;11.30;;
76777;SDS011;65721;50.118;8.714;2022-12-11T05:57:06;19.70;;;11.20;;
76777;SDS011;65721;50.118;8.714;2022-12-11T05:59:32;20.70;;;10.90;;
76777;SDS011;65721;50.118;8.714;2022-12-11T06:01:57;18.30;;;10.20;;
76777;SDS011;65721;50.118;8.714;2022-12-11T06:04:22;23.80;;;11.80;;
76777;SDS011;65721;50.118;8.714;2022-12-11T06:06:48;20.60;;;11.70;;
76777;SDS011;65721;50.118;8.714;2022-12-11T06:09:14;21.90;;;11.20;;
76777;SDS011;65721;50.118;8.714;2022-12-11T06:11:40;31.90;;;15.30;;
76777;SDS011;65721;50.118;8.714;2022-12-11T06:14:06;38.90;;;17.50;;
76777;SDS011;65721;50.118;8.714;2022-12-11T06:16:33;25.70;;;13.00;;
76777;SDS011;65721;50.118;8.714;2022-12-11T06:18:59;20.30;;;12.20;;
76777;SDS011;65721;50.118;8.714;2022-12-11T06:21:25;20.70;;;11.70;;
76777;SDS011;65721;50.118;8.714;2022-12-11T06:23:53;22.20;;;11.20;;
76777;SDS011;65721;50.118;8.714;2022-12-11T06:26:21;21.80;;;11.80;;
76777;SDS011;65721;50.118;8.714;2022-12-11T06:28:48;20.90;;;11.30;;
76777;SDS011;65721;50.118;8.714;2022-12-11T06:31:15;22.20;;;11.20;;
76777;SDS011;65721;50.118;8.714;2022-12-11T06:33:41;20.60;;;11.00;;
76777;SDS011;65721;50.118;8.714;2022-12-11T06:36:08;22.00;;;10.90;;
76777;SDS011;65721;50.118;8.714;2022-12-11T06:38:36;19.70;;;11.10;;
76777;SDS011;65721;50.118;8.714;2022-12-11T06:41:03;22.10;;;11.80;;
76777;SDS011;65721;50.118;8.714;2022-12-11T06:43:31;20.30;;;10.80;;
76777;SDS011;65721;50.118;8.714;2022-12-11T06:45:58;20.30;;;10.70;;
76777;SDS011;65721;50.118;8.714;2022-12-11T06:48:23;19.60;;;11.00;;
76777;SDS011;65721;50.118;8.714;2022-12-11T06:50:49;21.30;;;10.70;;
76777;SDS011;65721;50.118;8.714;2022-12-11T06:53:15;22.60;;;11.10;;
76777;SDS011;65721;50.118;8.714;2022-12-11T06:55:41;28.90;;;14.00;;
76777;SDS011;65721;50.118;8.714;2022-12-11T06:58:08;38.50;;;17.40;;
76777;SDS011;65721;50.118;8.714;2022-12-11T07:00:36;28.90;;;14.60;;
76777;SDS011;65721;50.118;8.714;2022-12-11T07:03:02;17.90;;;11.30;;
76777;SDS011;65721;50.118;8.714;2022-12-11T07:05:29;34.60;;;15.30;;
76777;SDS011;65721;50.118;8.714;2022-12-11T07:07:55;20.70;;;12.30;;
76777;SDS011;65721;50.118;8.714;2022-12-11T07:10:21;30.90;;;16.70;;
76777;SDS011;65721;50.118;8.714;2022-12-11T07:12:47;31.10;;;15.10;;
76777;SDS011;65721;50.118;8.714;2022-12-11T07:15:13;25.90;;;14.00;;
76777;SDS011;65721;50.118;8.714;2022-12-11T07:17:39;22.70;;;12.90;;
76777;SDS011;65721;50.118;8.714;2022-12-11T07:20:05;22.30;;;12.60;;
76777;SDS011;65721;50.118;8.714;2022-12-11T07:22:33;21.90;;;11.30;;
76777;SDS011;65721;50.118;8.714;2022-12-11T07:24:59;19.00;;;11.30;;
76777;SDS011;65721;50.118;8.714;2022-12-11T07:27:24;21.50;;;11.70;;
76777;SDS011;65721;50.118;8.714;2022-12-11T07:29:50;53.20;;;23.00;;
76777;SDS011;65721;50.118;8.714;2022-12-11T07:32:15;48.80;;;21.90;;
76777;SDS011;65721;50.118;8.714;2022-12-11T07:34:41;34.60;;;17.40;;
76777;SDS011;65721;50.118;8.714;2022-12-11T07:37:07;46.10;;;19.50;;
76777;SDS011;65721;50.118;8.714;2022-12-11T07:39:32;44.40;;;19.10;;
76777;SDS011;65721;50.118;8.714;2022-12-11T07:41:57;36.70;;;16.40;;
76777;SDS011;65721;50.118;8.714;2022-12-11T07:44:23;27.90;;;15.60;;
76777;SDS011;65721;50.118;8.714;2022-12-11T07:46:48;21.10;;;12.00;;
76777;SDS011;65721;50.118;8.714;2022-12-11T07:49:14;22.80;;;11.20;;
76777;SDS011;65721;50.118;8.714;2022-12-11T07:51:39;23.30;;;12.80;;
76777;SDS011;65721;50.118;8.714;2022-12-11T07:54:09;19.50;;;11.90;;
76777;SDS011;65721;50.118;8.714;2022-12-11T07:56:39;20.10;;;11.40;;
76777;SDS011;65721;50.118;8.714;2022-12-11T07:59:05;25.10;;;12.60;;
76777;SDS011;65721;50.118;8.714;2022-12-11T08:01:32;23.50;;;12.50;;
76777;SDS011;65721;50.118;8.714;2022-12-11T08:04:00;20.20;;;11.10;;
76777;SDS011;65721;50.118;8.714;2022-12-11T08:06:31;19.10;;;11.40;;
76777;SDS011;65721;50.118;8.714;2022-12-11T08:08:59;20.30;;;11.60;;
76777;SDS011;65721;50.118;8.714;2022-12-11T08:11:26;18.70;;;10.90;;
76777;SDS011;65721;50.118;8.714;2022-12-11T08:13:52;22.80;;;12.60;;
76777;SDS011;65721;50.118;8.714;2022-12-11T08:16:18;22.10;;;12.60;;
76777;SDS011;65721;50.118;8.714;2022-12-11T08:18:45;31.60;;;16.90;;
76777;SDS011;65721;50.118;8.714;2022-12-11T08:21:16;34.00;;;15.30;;
76777;SDS011;65721;50.118;8.714;2022-12-11T08:23:43;28.80;;;14.90;;
76777;SDS011;65721;50.118;8.714;2022-12-11T08:26:10;22.00;;;12.60;;
76777;SDS011;65721;50.118;8.714;2022-12-11T08:28:39;25.10;;;14.10;;
76777;SDS011;65721;50.118;8.714;2022-12-11T08:31:05;22.40;;;12.50;;
76777;SDS011;65721;50.118;8.714;2022-12-11T08:33:34;21.30;;;12.20;;
76777;SDS011;65721;50.118;8.714;2022-12-11T08:36:04;24.90;;;13.30;;
76777;SDS011;65721;50.118;8.714;2022-12-11T08:38:32;24.40;;;12.90;;
76777;SDS011;65721;50.118;8.714;2022-12-11T08:40:58;24.70;;;12.10;;
76777;SDS011;65721;50.118;8.714;2022-12-11T08:43:24;22.20;;;12.70;;
76777;SDS011;65721;50.118;8.714;2022-12-11T08:45:49;25.40;;;12.70;;
76777;SDS011;65721;50.118;8.714;2022-12-11T08:48:15;22.60;;;13.20;;
76777;SDS011;65721;50.118;8.714;2022-12-11T08:50:41;26.00;;;13.50;;
76777;SDS011;65721;50.118;8.714;2022-12-11T08:53:07;25.90;;;12.90;;
76777;SDS011;65721;50.118;8.714;2022-12-11T08:55:32;23.30;;;11.90;;
76777;SDS011;65721;50.118;8.714;2022-12-11T08:57:58;24.00;;;12.60;;
76777;SDS011;65721;50.118;8.714;2022-12-11T09:00:24;22.20;;;12.30;;
76777;SDS011;65721;50.118;8.714;2022-12-11T09:02:49;33.70;;;15.50;;
76777;SDS011;65721;50.118;8.714;2022-12-11T09:05:15;35.50;;;16.20;;
76777;SDS011;65721;50.118;8.714;2022-12-11T09:07:41;28.40;;;14.60;;
76777;SDS011;65721;50.118;8.714;2022-12-11T09:10:07;23.90;;;14.20;;
76777;SDS011;65721;50.118;8.714;2022-12-11T09:12:34;25.20;;;13.50;;
76777;SDS011;65721;50.118;8.714;2022-12-11T09:15:01;25.60;;;13.60;;
76777;SDS011;65721;50.118;8.714;2022-12-11T09:17:28;24.60;;;13.50;;
76777;SDS011;65721;50.118;8.714;2022-12-11T09:19:53;20.20;;;12.40;;
76777;SDS011;65721;50.118;8.714;2022-12-11T09:22:19;25.20;;;13.30;;
76777;SDS011;65721;50.118;8.714;2022-12-11T09:24:44;24.70;;;13.30;;
76777;SDS011;65721;50.118;8.714;2022-12-11T09:27:10;23.20;;;13.00;;
76777;SDS011;65721;50.118;8.714;2022-12-11T09:29:36;25.80;;;14.50;;
76777;SDS011;65721;50.118;8.714;2022-12-11T09:32:03;23.70;;;13.20;;
76777;SDS011;65721;50.118;8.714;2022-12-11T09:34:29;24.00;;;13.60;;
76777;SDS011;65721;50.118;8.714;2022-12-11T09:36:54;24.50;;;14.10;;
76777;SDS011;65721;50.118;8.714;2022-12-11T09:39:20;24.30;;;13.30;;
76777;SDS011;65721;50.118;8.714;2022-12-11T09:41:51;24.80;;;14.10;;
76777;SDS011;65721;50.118;8.714;2022-12-11T09:44:37;33.90;;;17.00;;
76777;SDS011;65721;50.118;8.714;2022-12-11T09:47:12;38.20;;;17.30;;
76777;SDS011;65721;50.118;8.714;2022-12-11T09:52:36;23.20;;;13.30;;
76777;SDS011;65721;50.118;8.714;2022-12-11T09:55:16;26.20;;;14.90;;
76777;SDS011;65721;50.118;8.714;2022-12-11T09:57:52;24.60;;;13.30;;
76777;SDS011;65721;50.118;8.714;2022-12-11T10:00:31;24.30;;;14.10;;
76777;SDS011;65721;50.118;8.714;2022-12-11T10:05:54;23.30;;;12.00;;
76777;SDS011;65721;50.118;8.714;2022-12-11T10:08:59;26.60;;;14.40;;
76777;SDS011;65721;50.118;8.714;2022-12-11T10:11:47;27.40;;;14.40;;
76777;SDS011;65721;50.118;8.714;2022-12-11T10:16:54;22.90;;;12.90;;
76777;SDS011;65721;50.118;8.714;2022-12-11T10:19:25;24.70;;;13.00;;
76777;SDS011;65721;50.118;8.714;2022-12-11T10:21:53;23.70;;;13.80;;
76777;SDS011;65721;50.118;8.714;2022-12-11T10:24:22;23.10;;;13.70;;
76777;SDS011;65721;50.118;8.714;2022-12-11T10:26:57;27.90;;;14.50;;
76777;SDS011;65721;50.118;8.714;2022-12-11T10:29:34;25.00;;;13.60;;
76777;SDS011;65721;50.118;8.714;2022-12-11T10:32:00;29.70;;;14.00;;
76777;SDS011;65721;50.118;8.714;2022-12-11T10:34:30;31.10;;;16.20;;
76777;SDS011;65721;50.118;8.714;2022-12-11T10:36:59;37.40;;;17.40;;
76777;SDS011;65721;50.118;8.714;2022-12-11T10:39:25;29.80;;;15.80;;
76777;SDS011;65721;50.118;8.714;2022-12-11T10:41:52;25.70;;;14.40;;
76777;SDS011;65721;50.118;8.714;2022-12-11T10:47:10;25.40;;;15.00;;
76777;SDS011;65721;50.118;8.714;2022-12-11T10:49:37;24.60;;;13.60;;
76777;SDS011;65721;50.118;8.714;2022-12-11T10:52:10;29.00;;;15.00;;
76777;SDS011;65721;50.118;8.714;2022-12-11T10:54:44;27.30;;;16.10;;
76777;SDS011;65721;50.118;8.714;2022-12-11T10:57:13;27.20;;;14.30;;
76777;SDS011;65721;50.118;8.714;2022-12-11T10:59:44;28.90;;;13.60;;
76777;SDS011;65721;50.118;8.714;2022-12-11T11:02:20;30.20;;;14.60;;
76777;SDS011;65721;50.118;8.714;2022-12-11T11:04:49;23.90;;;13.30;;
76777;SDS011;65721;50.118;8.714;2022-12-11T11:07:23;25.50;;;13.10;;
76777;SDS011;65721;50.118;8.714;2022-12-11T11:12:38;25.20;;;13.50;;
76777;SDS011;65721;50.118;8.714;2022-12-11T11:15:28;24.20;;;12.40;;
76777;SDS011;65721;50.118;8.714;2022-12-11T11:18:18;25.80;;;14.30;;
76777;SDS011;65721;50.118;8.714;2022-12-11T11:20:46;41.60;;;17.50;;
76777;SDS011;65721;50.118;8.714;2022-12-11T11:23:13;35.30;;;17.20;;
76777;SDS011;65721;50.118;8.714;2022-12-11T11:25:47;34.10;;;16.60;;
76777;SDS011;65721;50.118;8.714;2022-12-11T11:28:19;23.50;;;13.70;;
76777;SDS011;65721;50.118;8.714;2022-12-11T11:30:58;27.80;;;14.10;;
76777;SDS011;65721;50.118;8.714;2022-12-11T11:36:23;29.70;;;15.70;;
76777;SDS011;65721;50.118;8.714;2022-12-11T11:38:57;28.80;;;15.90;;
76777;SDS011;65721;50.118;8.714;2022-12-11T11:41:34;30.40;;;15.90;;
76777;SDS011;65721;50.118;8.714;2022-12-11T11:44:09;24.80;;;13.60;;
76777;SDS011;65721;50.118;8.714;2022-12-11T11:46:43;25.30;;;12.80;;
76777;SDS011;65721;50.118;8.714;2022-12-11T11:51:54;26.00;;;13.50;;
76777;SDS011;65721;50.118;8.714;2022-12-11T11:57:39;27.30;;;12.50;;
76777;SDS011;65721;50.118;8.714;2022-12-11T12:00:17;22.80;;;12.20;;
76777;SDS011;65721;50.118;8.714;2022-12-11T12:02:50;22.70;;;11.90;;
76777;SDS011;65721;50.118;8.714;2022-12-11T12:05:27;24.80;;;12.60;;
76777;SDS011;65721;50.118;8.714;2022-12-11T12:08:08;27.40;;;13.70;;
76777;SDS011;65721;50.118;8.714;2022-12-11T12:13:16;24.40;;;13.30;;
76777;SDS011;65721;50.118;8.714;2022-12-11T12:15:55;20.50;;;12.90;;
76777;SDS011;65721;50.118;8.714;2022-12-11T12:20:59;24.20;;;11.80;;
76777;SDS011;65721;50.118;8.714;2022-12-11T12:23:51;27.40;;;12.70;;
76777;SDS011;65721;50.118;8.714;2022-12-11T12:26:26;23.20;;;11.60;;
76777;SDS011;65721;50.118;8.714;2022-12-11T12:32:17;17.40;;;11.80;;
76777;SDS011;65721;50.118;8.714;2022-12-11T12:46:06;20.80;;;10.50;;
76777;SDS011;65721;50.118;8.714;2022-12-11T12:48:40;19.40;;;10.70;;
76777;SDS011;65721;50.118;8.714;2022-12-11T12:51:05;21.60;;;10.60;;
76777;SDS011;65721;50.118;8.714;2022-12-11T12:53:33;22.50;;;11.60;;
76777;SDS011;65721;50.118;8.714;2022-12-11T12:56:01;20.60;;;10.80;;
76777;SDS011;65721;50.118;8.714;2022-12-11T13:01:33;20.60;;;12.00;;
76777;SDS011;65721;50.118;8.714;2022-12-11T13:03:54;19.80;;;11.00;;
76777;SDS011;65721;50.118;8.714;2022-12-11T13:06:41;21.40;;;10.60;;
76777;SDS011;65721;50.118;8.714;2022-12-11T13:11:53;21.70;;;10.60;;
76777;SDS011;65721;50.118;8.714;2022-12-11T13:14:29;18.00;;;10.50;;
76777;SDS011;65721;50.118;8.714;2022-12-11T13:17:04;21.60;;;10.90;;
76777;SDS011;65721;50.118;8.714;2022-12-11T13:19:45;23.70;;;11.70;;
76777;SDS011;65721;50.118;8.714;2022-12-11T13:24:48;20.00;;;9.80;;
76777;SDS011;65721;50.118;8.714;2022-12-11T13:27:37;24.00;;;10.70;;
76777;SDS011;65721;50.118;8.714;2022-12-11T13:35:39;15.60;;;8.70;;
76777;SDS011;65721;50.118;8.714;2022-12-11T13:38:06;17.90;;;9.40;;
76777;SDS011;65721;50.118;8.714;2022-12-11T13:40:40;21.20;;;9.70;;
76777;SDS011;65721;50.118;8.714;2022-12-11T13:43:15;18.80;;;10.70;;
76777;SDS011;65721;50.118;8.714;2022-12-11T13:45:50;21.30;;;10.00;;
76777;SDS011;65721;50.118;8.714;2022-12-11T13:48:22;17.10;;;8.50;;
76777;SDS011;65721;50.118;8.714;2022-12-11T13:50:53;15.70;;;8.20;;
76777;SDS011;65721;50.118;8.714;2022-12-11T13:53:20;19.40;;;8.40;;
76777;SDS011;65721;50.118;8.714;2022-12-11T13:55:54;14.30;;;7.00;;
76777;SDS011;65721;50.118;8.714;2022-12-11T13:58:25;18.60;;;8.60;;
76777;SDS011;65721;50.118;8.714;2022-12-11T14:00:52;17.80;;;9.20;;
76777;SDS011;65721;50.118;8.714;2022-12-11T14:03:18;15.40;;;9.40;;
76777;SDS011;65721;50.118;8.714;2022-12-11T14:05:44;20.60;;;10.80;;
76777;SDS011;65721;50.118;8.714;2022-12-11T14:08:10;21.70;;;10.10;;
76777;SDS011;65721;50.118;8.714;2022-12-11T14:10:36;16.30;;;10.00;;
76777;SDS011;65721;50.118;8.714;2022-12-11T14:13:04;19.40;;;10.20;;
76777;SDS011;65721;50.118;8.714;2022-12-11T14:15:35;20.80;;;8.90;;
76777;SDS011;65721;50.118;8.714;2022-12-11T14:18:02;16.40;;;9.00;;
76777;SDS011;65721;50.118;8.714;2022-12-11T14:20:30;20.40;;;9.60;;
76777;SDS011;65721;50.118;8.714;2022-12-11T14:23:14;19.20;;;9.60;;
76777;SDS011;65721;50.118;8.714;2022-12-11T14:25:50;18.70;;;10.80;;
76777;SDS011;65721;50.118;8.714;2022-12-11T14:28:36;19.80;;;9.80;;
76777;SDS011;65721;50.118;8.714;2022-12-11T14:31:05;23.00;;;10.60;;
76777;SDS011;65721;50.118;8.714;2022-12-11T14:33:36;27.30;;;13.30;;
76777;SDS011;65721;50.118;8.714;2022-12-11T14:36:05;20.10;;;9.90;;
76777;SDS011;65721;50.118;8.714;2022-12-11T14:38:33;21.10;;;11.00;;
76777;SDS011;65721;50.118;8.714;2022-12-11T14:41:12;18.70;;;10.20;;
76777;SDS011;65721;50.118;8.714;2022-12-11T14:43:47;18.60;;;10.30;;
76777;SDS011;65721;50.118;8.714;2022-12-11T14:46:18;17.60;;;10.20;;
76777;SDS011;65721;50.118;8.714;2022-12-11T14:48:52;19.70;;;10.00;;
76777;SDS011;65721;50.118;8.714;2022-12-11T14:51:25;19.00;;;9.80;;
76777;SDS011;65721;50.118;8.714;2022-12-11T14:53:55;22.40;;;10.70;;
76777;SDS011;65721;50.118;8.714;2022-12-11T14:56:24;21.50;;;10.30;;
76777;SDS011;65721;50.118;8.714;2022-12-11T15:01:31;23.70;;;11.20;;
76777;SDS011;65721;50.118;8.714;2022-12-11T15:06:43;21.90;;;10.90;;
76777;SDS011;65721;50.118;8.714;2022-12-11T15:09:26;19.20;;;9.70;;
76777;SDS011;65721;50.118;8.714;2022-12-11T15:11:55;18.60;;;10.00;;
76777;SDS011;65721;50.118;8.714;2022-12-11T15:14:23;20.60;;;11.00;;
76777;SDS011;65721;50.118;8.714;2022-12-11T15:16:50;18.00;;;10.00;;
76777;SDS011;65721;50.118;8.714;2022-12-11T15:19:21;17.00;;;9.00;;
76777;SDS011;65721;50.118;8.714;2022-12-11T15:21:50;19.80;;;9.20;;
76777;SDS011;65721;50.118;8.714;2022-12-11T15:24:21;19.50;;;9.50;;
76777;SDS011;65721;50.118;8.714;2022-12-11T15:26:50;19.30;;;8.80;;
76777;SDS011;65721;50.118;8.714;2022-12-11T15:29:29;26.30;;;12.00;;
76777;SDS011;65721;50.118;8.714;2022-12-11T15:32:11;30.90;;;12.10;;
76777;SDS011;65721;50.118;8.714;2022-12-11T15:37:22;15.70;;;8.10;;
76777;SDS011;65721;50.118;8.714;2022-12-11T15:39:50;17.90;;;9.20;;
76777;SDS011;65721;50.118;8.714;2022-12-11T15:42:25;19.10;;;9.80;;
76777;SDS011;65721;50.118;8.714;2022-12-11T15:44:54;18.00;;;9.00;;
76777;SDS011;65721;50.118;8.714;2022-12-11T15:47:22;42.00;;;22.00;;
76777;SDS011;65721;50.118;8.714;2022-12-11T15:49:52;24.50;;;12.20;;
76777;SDS011;65721;50.118;8.714;2022-12-11T15:52:22;22.10;;;11.10;;
76777;SDS011;65721;50.118;8.714;2022-12-11T15:54:49;21.40;;;11.10;;
76777;SDS011;65721;50.118;8.714;2022-12-11T15:57:16;21.10;;;11.70;;
76777;SDS011;65721;50.118;8.714;2022-12-11T15:59:44;22.20;;;11.60;;